Latest Weather Observations for Blackwater Airport

IDQ60801

Issued at 10:22 am EST Tuesday 7 December 2021 (issued every 10 minutes, with the page automatically refreshed every 10 minutes)

About weather observations | Map of weather stations | Latest weather observations for QLD | Other Formats
Station Details ID: 035134 Name: BLACKWATER AIRPORT Lat: -23.60 Lon: 148.81 Height: 192.95 m
Data from the previous 72 hours. | See also: Recent months at Blackwater Airport
Date/Time
EST
Temp
°C
App
Temp
°C
Dew
Point
°C
Rel
Hum
%
Delta-T
°C
Wind Press
QNH
hPa
Press
MSL
hPa
Rain since
9am
mm
Dir  Spd
km/h
Gust
km/h
Spd
kts
Gust
kts
07/10:00am 28.1 28.9 19.1 58 5.9 ENE 13 22 7 12 1014.1 1012.8 0.0
07/09:30am 27.1 27.4 18.7 60 5.4 ENE 15 22 8 12 1014.2 1012.9 0.0
07/09:00am 26.7 26.5 19.3 64 4.8 NE 19 26 10 14 1014.3 1013.0 0.0
07/08:30am 26.7 26.6 19.6 65 4.6 NE 19 30 10 16 1014.3 1013.0 0.0
07/08:00am 25.8 25.9 19.2 67 4.3 ENE 17 26 9 14 1014.3 1013.0 0.0
07/07:30am 24.9 25.1 19.3 71 3.6 ENE 17 26 9 14 1014.1 1012.8 0.0
07/07:00am 23.9 25.3 19.6 77 2.8 ENE 11 17 6 9 1014.3 1013.0 0.0
07/06:30am 21.8 24.5 19.5 87 1.5 N 4 7 2 4 1014.4 1013.1 0.0
07/06:00am 20.4 22.4 19.1 92 0.8 NNE 7 9 4 5 1013.9 1012.7 0.0
07/05:30am 20.0 22.7 18.7 92 0.8 WSW 2 7 1 4 1013.8 1012.6 0.0
07/05:00am 19.8 21.0 18.3 91 0.9 WSW 9 11 5 6 1013.7 1012.5 0.0
07/04:30am 19.7 20.9 18.2 91 0.9 N 9 11 5 6 1012.9 1011.7 0.0
07/04:00am 20.4 22.7 17.6 84 1.7 SSE 2 9 1 5 1013.0 1011.8 0.0
07/03:30am 20.6 22.0 17.8 84 1.7 SSE 7 9 4 5 1012.4 1011.1 0.0
07/03:00am 21.3 21.5 17.7 80 2.2 S 13 17 7 9 1013.0 1011.8 0.0
07/02:30am 21.2 21.9 18.0 82 2.0 S 11 13 6 7 1013.2 1012.0 0.0
07/02:00am 21.2 22.9 18.4 84 1.8 SW 7 13 4 7 1013.4 1012.2 0.0
07/01:30am 22.2 23.1 17.6 75 2.9 S 9 13 5 7 1013.6 1012.4 0.0
07/01:00am 22.7 23.9 18.3 76 2.8 S 9 15 5 8 1013.9 1012.7 0.0
07/12:30am 22.7 23.0 18.0 75 3.0 S 13 17 7 9 1014.1 1012.8 0.0
07/12:00am 22.2 22.7 18.4 79 2.4 SSE 13 17 7 9 1014.3 1013.0 0.0
 
Date/Time
EST
Temp
°C
App
Temp
°C
Dew
Point
°C
Rel
Hum
%
Delta-T
°C
Wind Press
QNH
hPa
Press
MSL
hPa
Rain since
9am
mm
Dir  Spd
km/h
Gust
km/h
Spd
kts
Gust
kts
06/11:30pm 22.3 21.6 18.3 78 2.5 S 19 24 10 13 1014.5 1013.2 0.0
06/11:00pm 24.2 23.9 19.1 73 3.3 E 19 26 10 14 1013.9 1012.7 0.0
06/10:30pm 24.1 24.4 19.6 76 2.9 ENE 17 22 9 12 1013.6 1012.4 0.0
06/10:00pm 24.8 25.1 19.6 73 3.4 ENE 17 26 9 14 1013.9 1012.7 0.0
06/09:30pm 25.4 25.2 19.3 69 3.9 ENE 19 26 10 14 1013.4 1012.2 0.0
06/09:00pm 26.1 25.9 18.5 63 4.9 E 17 20 9 11 1012.7 1011.5 0.0
06/08:30pm 26.3 26.9 18.7 63 4.9 ENE 13 17 7 9 1012.3 1011.0 0.0
06/08:00pm 26.6 27.2 18.7 62 5.1 ENE 13 19 7 10 1012.4 1011.1 0.0
06/07:30pm 26.5 28.0 18.9 63 4.9 E 9 13 5 7 1012.1 1010.8 0.0
06/07:00pm 26.7 28.1 18.6 61 5.2 ENE 9 11 5 6 1011.8 1010.5 0.0
06/06:30pm 27.3 28.2 18.3 58 5.8 ENE 11 15 6 8 1011.4 1010.1 0.0
06/06:00pm 27.9 29.0 18.9 58 5.8 ENE 11 15 6 8 1010.8 1009.5 0.0
06/05:30pm 28.5 29.6 18.9 56 6.2 NE 11 17 6 9 1010.4 1009.1 0.0
06/05:00pm 29.2 29.8 18.6 52 6.9 NE 13 19 7 10 1010.2 1008.9 0.0
06/04:30pm 28.8 29.9 18.9 55 6.4 NE 11 17 6 9 1010.1 1008.8 0.0
06/04:00pm 29.2 30.1 18.3 51 7.0 NNE 11 15 6 8 1010.1 1008.8 0.0
06/03:30pm 30.2 30.7 18.3 49 7.7 ENE 13 19 7 10 1010.3 1009.0 0.0
06/03:00pm 30.2 31.2 18.6 49 7.5 ENE 11 17 6 9 1010.5 1009.2 0.0
06/02:30pm 30.5 31.1 19.5 51 7.2 NE 15 19 8 10 1011.0 1009.7 0.0
06/02:00pm 30.1 30.4 18.8 50 7.4 ENE 15 24 8 13 1011.4 1010.1 0.0
06/01:30pm 29.6 30.5 19.3 54 6.7 ENE 13 22 7 12 1011.9 1010.6 0.0
06/01:00pm 29.1 30.2 18.8 53 6.7 ENE 11 17 6 9 1012.3 1011.0 0.0
06/12:30pm 28.7 29.6 19.3 56 6.1 ENE 13 22 7 12 1012.7 1011.5 0.0
06/12:00pm 27.6 28.0 19.1 59 5.5 E 15 22 8 12 1013.0 1011.8 0.0
06/11:30am 28.4 28.6 19.3 57 5.9 NE 17 26 9 14 1013.1 1011.9 0.0
06/11:00am 28.2 29.1 19.2 58 5.9 ENE 13 20 7 11 1013.7 1012.5 0.0
06/10:30am 27.6 28.8 20.7 66 4.6 ENE 15 24 8 13 1013.8 1012.6 0.0
06/10:00am 26.6 26.9 19.7 66 4.5 ENE 17 26 9 14 1013.9 1012.7 0.0
06/09:30am 26.5 26.5 20.1 68 4.2 ENE 20 28 11 15 1013.8 1012.6 0.0
06/09:00am 26.3 26.3 19.7 67 4.3 E 19 28 10 15 1014.1 1012.8 4.4
06/08:30am 25.2 24.8 19.3 70 3.8 E 20 32 11 17 1014.1 1012.8 4.4
06/08:00am 25.1 24.8 19.5 71 3.6 E 20 30 11 16 1013.9 1012.7 4.4
06/07:30am 24.5 24.2 19.6 74 3.2 ENE 20 33 11 18 1013.9 1012.7 4.4
06/07:00am 24.0 23.6 19.3 75 3.0 E 20 28 11 15 1013.6 1012.4 4.4
06/06:30am 23.5 23.0 19.2 77 2.8 E 20 26 11 14 1013.4 1012.2 4.4
06/06:00am 23.2 23.7 19.2 78 2.6 E 15 24 8 13 1013.0 1011.8 4.4
06/05:30am 22.1 24.3 19.5 85 1.7 E 7 11 4 6 1012.7 1011.5 4.4
06/05:00am 22.1 23.1 19.5 85 1.7 ENE 13 19 7 10 1012.1 1010.8 4.4
06/04:30am 22.3 22.6 19.5 84 1.8 ENE 17 24 9 13 1012.0 1010.7 4.4
06/04:00am 22.5 22.3 19.7 84 1.8 ENE 20 28 11 15 1011.5 1010.2 4.4
06/03:30am 22.4 22.7 19.6 84 1.8 ENE 17 26 9 14 1011.4 1010.1 4.4
06/03:00am 22.4 23.0 19.4 83 1.9 ENE 15 19 8 10 1011.6 1010.3 4.4
06/02:30am 22.3 22.8 19.3 83 1.9 ENE 15 20 8 11 1011.4 1010.1 4.4
06/02:00am 22.1 22.2 19.1 83 1.9 ENE 17 24 9 13 1011.4 1010.1 4.4
06/01:30am 21.8 22.1 18.8 83 1.9 ENE 15 20 8 11 1011.9 1010.6 4.4
06/01:00am 21.6 22.7 18.8 84 1.8 ENE 11 17 6 9 1012.1 1010.8 4.4
06/12:30am 22.2 22.4 18.6 80 2.3 ENE 15 20 8 11 1012.1 1010.8 4.4
06/12:00am 22.5 22.2 18.3 77 2.7 ENE 17 22 9 12 1012.5 1011.2 4.4
 
Date/Time
EST
Temp
°C
App
Temp
°C
Dew
Point
°C
Rel
Hum
%
Delta-T
°C
Wind Press
QNH
hPa
Press
MSL
hPa
Rain since
9am
mm
Dir  Spd
km/h
Gust
km/h
Spd
kts
Gust
kts
05/11:30pm 22.1 22.4 17.9 77 2.6 E 13 20 7 11 1012.7 1011.5 4.4
05/11:00pm 21.7 20.9 18.1 80 2.3 ENE 19 26 10 14 1012.7 1011.5 4.4
05/10:30pm 21.6 22.4 19.0 85 1.7 NE 13 20 7 11 1012.7 1011.5 4.4
05/10:00pm 22.3 22.7 18.9 81 2.2 ENE 15 32 8 17 1012.8 1011.6 4.2
05/09:30pm 22.5 23.0 19.3 82 2.1 NE 15 22 8 12 1012.9 1011.7 3.6
05/09:00pm 23.3 21.7 19.2 78 2.6 ENE 26 39 14 21 1012.3 1011.0 3.6
05/08:41pm 23.6 21.8 19.5 78 2.6 ENE 28 50 15 27 1011.8 1010.5 3.6
05/08:30pm 24.1 22.3 19.6 76 2.9 ENE 28 39 15 21 1011.7 1010.4 3.6
05/08:11pm 25.0 22.9 18.9 69 3.9 ENE 28 48 15 26 1011.4 1010.1 3.6
05/08:00pm 26.0 24.7 18.2 62 5.0 ENE 22 33 12 18 1011.3 1010.0 3.6
05/07:30pm 26.9 26.1 18.5 60 5.4 E 20 30 11 16 1010.5 1009.2 3.6
05/07:00pm 27.4 31.8 22.1 73 3.6 S 2 6 1 3 1009.6 1008.3 3.6
05/06:30pm 27.6 30.9 21.9 71 3.9 S 7 9 4 5 1009.3 1008.0 3.6
05/06:00pm 26.8 30.4 20.6 69 4.1 NE 2 6 1 3 1008.9 1007.6 3.6
05/05:30pm 26.6 29.5 21.1 72 3.7 NNE 7 9 4 5 1008.3 1007.1 3.6
05/05:00pm 26.3 28.8 21.1 73 3.5 ENE 9 13 5 7 1008.2 1007.0 3.6
05/04:30pm 27.0 27.6 21.3 71 3.8 ENE 20 28 11 15 1008.4 1007.2 3.4
05/04:00pm 27.9 28.2 20.7 65 4.8 ENE 20 28 11 15 1008.3 1007.1 2.2
05/03:30pm 33.2 34.9 19.3 44 9.2 NE 9 15 5 8 1008.3 1007.1 0.0
05/03:00pm 33.1 34.9 18.8 42 9.4 W 7 11 4 6 1008.4 1007.2 0.0
05/02:30pm 32.7 35.4 20.2 47 8.4 NW 6 13 3 7 1009.1 1007.8 0.0
05/02:00pm 32.7 34.5 19.6 46 8.7 NW 9 13 5 7 1009.5 1008.2 0.0
05/01:30pm 31.5 33.5 19.2 48 8.1 SW 7 15 4 8 1010.0 1008.7 0.0
05/01:00pm 31.0 33.0 20.0 52 7.3 SSW 9 15 5 8 1010.4 1009.1 0.0
05/12:30pm 30.7 33.2 20.3 53 6.9 NNE 7 15 4 8 1010.7 1009.4 0.0
05/12:00pm 30.6 33.7 21.1 57 6.4 N 6 13 3 7 1011.3 1010.0 0.0
05/11:30am 29.6 32.1 19.9 56 6.4 N 6 11 3 6 1011.8 1010.5 0.0
05/11:00am 29.7 30.6 20.8 58 6.0 ENE 17 22 9 12 1012.2 1010.9 0.0
05/10:30am 28.5 29.6 20.5 62 5.3 NE 15 24 8 13 1012.6 1011.3 0.0
05/10:00am 28.8 29.1 19.7 58 6.0 ENE 17 28 9 15 1013.0 1011.8 0.0
05/09:30am 27.6 28.5 20.9 67 4.5 NE 17 24 9 13 1013.5 1012.3 0.0
05/09:00am 26.6 26.3 20.4 68 4.1 ENE 22 33 12 18 1013.6 1012.4 0.0
05/08:30am 26.5 25.7 20.1 68 4.2 ENE 24 35 13 19 1013.4 1012.2 0.0
05/08:00am 26.7 27.2 20.8 70 3.9 ENE 19 30 10 16 1013.2 1012.0 0.0
05/07:30am 26.1 27.2 21.3 75 3.2 ENE 17 22 9 12 1012.8 1011.6 0.0
05/07:00am 25.3 27.2 21.4 79 2.6 NE 13 20 7 11 1012.4 1011.1 0.0
05/06:30am 24.5 27.0 21.8 85 1.8 ENE 11 17 6 9 1012.0 1010.7 0.0
05/06:00am 22.9 25.8 21.7 93 0.8 ENE 9 13 5 7 1011.6 1010.3 0.0
05/05:30am 21.9 25.4 21.1 95 0.5 NNE 4 6 2 3 1011.1 1009.8 0.0
05/05:00am 22.0 24.9 21.0 94 0.7 NE 7 9 4 5 1010.9 1009.6 0.0
05/04:30am 22.0 24.8 20.8 93 0.8 NE 7 9 4 5 1010.7 1009.4 0.0
05/04:00am 22.4 24.9 21.0 92 0.9 NE 9 11 5 6 1010.6 1009.3 0.0
05/03:30am 22.5 25.3 20.8 90 1.1 NE 7 11 4 6 1010.5 1009.2 0.0
05/03:00am 22.9 24.9 20.8 88 1.4 ENE 11 15 6 8 1010.1 1008.8 0.0
05/02:30am 23.4 25.2 21.1 87 1.5 ENE 13 19 7 10 1010.2 1008.9 0.0
05/02:00am 23.1 25.5 20.8 87 1.5 E 9 9 5 5 1010.1 1008.8 0.0
05/01:30am 23.1 25.5 20.8 87 1.5 ENE 9 11 5 6 1010.1 1008.8 0.0
05/01:00am 23.2 26.1 20.7 86 1.6 NNE 6 7 3 4 1010.2 1008.9 0.0
05/12:30am 24.2 26.5 20.7 81 2.3 ENE 9 13 5 7 1010.3 1009.0 0.0
05/12:00am 24.9 26.5 20.8 78 2.7 E 13 17 7 9 1010.7 1009.4 0.0
 
Date/Time
EST
Temp
°C
App
Temp
°C
Dew
Point
°C
Rel
Hum
%
Delta-T
°C
Wind Press
QNH
hPa
Press
MSL
hPa
Rain since
9am
mm
Dir  Spd
km/h
Gust
km/h
Spd
kts
Gust
kts
04/11:30pm 24.5 26.2 20.2 77 2.8 ENE 11 13 6 7 1011.0 1009.7 0.0
04/11:00pm 24.5 26.4 19.8 75 3.1 NE 9 11 5 6 1011.1 1009.8 0.0
04/10:30pm 25.1 28.4 19.9 73 3.4 SW 2 6 1 3 1011.0 1009.7 0.0
04/10:00pm 25.4 27.8 20.0 72 3.5 SW 7 9 4 5 1010.8 1009.5 0.0
04/09:30pm 25.6 27.8 19.5 69 4.0 SSW 7 9 4 5 1010.6 1009.3 0.0
04/09:00pm 26.0 27.8 18.7 64 4.7 SSW 7 9 4 5 1010.2 1008.9 0.0
04/08:30pm 26.2 28.5 19.8 68 4.2 WSW 7 11 4 6 1010.0 1008.7 0.0
04/08:00pm 26.9 29.3 17.9 57 5.7 SSW 2 7 1 4 1009.9 1008.6 0.0
04/07:30pm 28.2 29.2 16.8 50 7.2 WSW 7 20 4 11 1010.0 1008.7 0.0
04/07:00pm 29.1 29.7 18.5 52 6.9 W 13 26 7 14 1009.5 1008.2 0.0
04/06:30pm 29.5 31.8 20.6 58 5.9 NE 9 11 5 6 1009.2 1007.9 0.0
04/06:00pm 30.4 32.4 20.0 53 6.9 NE 9 11 5 6 1009.1 1007.8 0.0
04/05:30pm 32.2 34.9 21.4 53 7.3 NNE 9 15 5 8 1008.8 1007.5 0.0
04/05:00pm 32.4 33.6 20.0 48 8.3 N 13 20 7 11 1008.2 1007.0 0.0
04/04:30pm 32.4 34.3 21.3 52 7.5 N 13 20 7 11 1008.5 1007.3 0.0
04/04:00pm 33.4 35.6 20.5 46 8.7 NNE 9 17 5 9 1008.5 1007.3 0.0
04/03:30pm 33.6 35.9 20.7 46 8.7 ENE 9 17 5 9 1008.8 1007.5 0.0
04/03:00pm 33.5 34.9 19.6 44 9.3 NNW 11 15 6 8 1009.2 1007.9 0.0
04/02:30pm 33.1 34.9 20.3 47 8.6 NNE 11 19 6 10 1009.6 1008.3 0.0
04/02:00pm 33.0 35.8 20.9 49 8.2 NW 7 13 4 7 1010.0 1008.7 0.0
04/01:30pm 32.5 34.6 21.0 50 7.8 E 11 19 6 10 1010.4 1009.1 0.0
04/01:00pm 32.5 35.6 21.4 52 7.5 NNW 7 11 4 6 1010.8 1009.5 0.0
04/12:30pm 31.6 33.6 20.8 52 7.3 NNE 11 15 6 8 1011.4 1010.1 0.0
04/12:00pm 31.1 33.8 20.7 54 7.0 NW 7 15 4 8 1011.8 1010.5 0.0
04/11:30am 30.4 32.6 20.3 54 6.7 NNE 9 13 5 7 1012.5 1011.2 0.0
04/11:00am 30.3 32.9 20.5 55 6.5 WNW 7 11 4 6 1013.2 1012.0 0.0
04/10:30am 28.7 31.3 20.4 60 5.5 WSW 7 15 4 8 1013.6 1012.4 0.0

Other formats

Comma delimited format used in spreadsheet applications
http://www.bom.gov.au/fwo/IDQ60801/IDQ60801.94398.axf

JavaScript Object Notation format (JSON) in row-major order
http://www.bom.gov.au/fwo/IDQ60801/IDQ60801.94398.json

Data quality

Most of these data are generated automatically and are frequently updated. Quality checks on data are not normally performed. It is possible for incorrect values to appear. Refer to information at About Latest Weather Observations and please check the disclaimer before using these data.